Terminal Aerodrome Forecast
Issued by NWS Wilmington, OH

Current Version | Previous Version | Graphics & Text | Print | Product List | Glossary On
Versions: 1 2 3 4 5 6 7 8 9 10 11 12 13 14 15
038
FTUS41 KILN 261130
TAFCMH
TAF
KCMH 261130Z 2612/2712 21003KT P6SM VCSH OVC090
     FM261500 16008KT P6SM -SHRA OVC040
      TEMPO 2615/2619 5SM SHRA OVC025
     FM261900 17010G17KT P6SM -SHRA VCTS OVC045CB
      TEMPO 2619/2622 3SM SHRA OVC025
     FM262200 18008KT P6SM VCSH OVC060
     FM270300 20006KT P6SM VCSH BKN029
     FM270800 23005KT P6SM BKN017=

USA.gov is the U.S. government's official web portal to all federal, state and local government web resources and services.